createdAt,value
2023-04-15T00:03:28.745Z,11.55
2023-04-15T00:05:31.716Z,10.63
2023-04-15T00:07:33.813Z,11.77
2023-04-15T00:11:37.649Z,11.38
2023-04-15T00:13:39.909Z,8.50
2023-04-15T00:15:42.449Z,10.40
2023-04-15T00:17:44.401Z,10.90
2023-04-15T00:19:46.406Z,9.73
2023-04-15T00:21:48.227Z,9.60
2023-04-15T00:23:52.736Z,9.75
2023-04-15T00:25:54.968Z,8.45
2023-04-15T00:27:56.806Z,7.80
2023-04-15T00:29:58.672Z,8.32
2023-04-15T00:32:00.573Z,7.68
2023-04-15T00:34:05.147Z,7.57
2023-04-15T00:36:08.602Z,6.40
2023-04-15T00:38:10.785Z,6.80
2023-04-15T00:40:14.121Z,7.43
2023-04-15T00:42:16.532Z,8.57
2023-04-15T00:44:19.019Z,6.80
2023-04-15T00:46:22.763Z,7.18
2023-04-15T00:48:26.211Z,7.57
2023-04-15T00:50:28.112Z,6.97
2023-04-15T00:52:30.006Z,7.00
2023-04-15T00:54:31.904Z,7.18
2023-04-15T00:56:38.074Z,6.38
2023-04-15T00:58:40.181Z,6.85
2023-04-15T01:02:45.000Z,6.70
2023-04-15T01:04:47.171Z,6.90
2023-04-15T01:08:51.334Z,6.77
2023-04-15T01:10:54.674Z,5.70
2023-04-15T01:12:57.079Z,5.90
2023-04-15T01:15:00.230Z,5.10
2023-04-15T01:17:02.346Z,6.13
2023-04-15T01:21:07.167Z,5.40
2023-04-15T01:23:09.701Z,4.88
2023-04-15T01:25:19.677Z,5.00
2023-04-15T01:27:22.296Z,4.40
2023-04-15T01:29:24.218Z,4.50
2023-04-15T01:31:26.138Z,4.80
2023-04-15T01:33:28.049Z,4.82
2023-04-15T01:35:29.920Z,5.60
2023-04-15T01:37:32.345Z,6.03
2023-04-15T01:39:34.594Z,4.93
2023-04-15T01:41:36.503Z,4.70
2023-04-15T01:43:38.355Z,5.03
2023-04-15T01:45:40.218Z,5.18
2023-04-15T01:47:42.117Z,4.75
2023-04-15T01:49:44.037Z,5.85
2023-04-15T01:51:45.919Z,6.28
2023-04-15T01:53:47.832Z,5.85
2023-04-15T01:55:49.690Z,6.15
2023-04-15T01:57:52.492Z,7.03
2023-04-15T01:59:54.345Z,7.07
2023-04-15T02:01:56.311Z,6.68
2023-04-15T02:03:58.583Z,7.10
2023-04-15T02:06:00.442Z,6.70
2023-04-15T02:08:02.369Z,6.10
2023-04-15T02:10:04.474Z,6.38
2023-04-15T02:14:09.613Z,5.68
2023-04-15T02:16:20.769Z,5.72
2023-04-15T02:18:22.762Z,7.93
2023-04-15T02:20:24.735Z,7.82
2023-04-15T02:22:26.781Z,8.18
2023-04-15T02:26:33.516Z,7.43
2023-04-15T02:28:35.894Z,7.13
2023-04-15T02:30:37.812Z,6.32
2023-04-15T02:32:40.849Z,5.88
2023-04-15T02:34:43.104Z,5.50
2023-04-15T02:36:45.672Z,6.75
2023-04-15T02:38:47.504Z,6.72
2023-04-15T02:40:50.453Z,7.45
2023-04-15T02:42:52.302Z,7.57
2023-04-15T02:44:55.056Z,7.32
2023-04-15T02:46:58.346Z,5.75
2023-04-15T02:49:00.580Z,5.93
2023-04-15T02:51:20.710Z,6.05
2023-04-15T02:53:22.849Z,5.50
2023-04-15T02:55:24.755Z,5.85
2023-04-15T02:57:29.142Z,6.22
2023-04-15T02:59:31.047Z,5.82
2023-04-15T03:01:32.904Z,6.47
2023-04-15T03:03:35.372Z,7.03
2023-04-15T03:05:39.284Z,5.85
2023-04-15T03:07:41.121Z,5.40
2023-04-15T03:09:43.153Z,6.68
2023-04-15T03:11:45.027Z,6.35
2023-04-15T03:13:47.294Z,6.18
2023-04-15T03:15:49.179Z,5.50
2023-04-15T03:17:51.202Z,5.57
2023-04-15T03:19:53.130Z,5.38
2023-04-15T03:21:54.987Z,6.63
2023-04-15T03:23:57.419Z,7.32
2023-04-15T03:26:02.386Z,8.20
2023-04-15T03:28:04.378Z,8.88
2023-04-15T03:30:07.847Z,9.18
2023-04-15T03:32:09.805Z,6.57
2023-04-15T03:34:11.651Z,7.07
2023-04-15T03:36:13.583Z,8.32
2023-04-15T03:38:15.713Z,7.53
2023-04-15T03:42:20.582Z,5.55
2023-04-15T03:44:22.416Z,6.15
2023-04-15T03:46:24.491Z,6.18
2023-04-15T03:50:28.482Z,5.72
2023-04-15T03:52:30.530Z,6.00
2023-04-15T03:56:34.160Z,7.00
2023-04-15T03:58:35.996Z,6.85
2023-04-15T04:00:37.867Z,6.60
2023-04-15T04:02:39.857Z,6.32
2023-04-15T04:06:43.946Z,4.68
2023-04-15T04:08:45.859Z,4.78
2023-04-15T04:10:47.974Z,5.57
2023-04-15T04:12:49.831Z,4.50
2023-04-15T04:14:51.673Z,4.88
2023-04-15T04:16:53.652Z,4.95
2023-04-15T04:18:55.612Z,5.25
2023-04-15T04:20:57.528Z,5.57
2023-04-15T04:22:59.360Z,5.18
2023-04-15T04:25:02.680Z,5.20
2023-04-15T04:27:04.534Z,4.60
2023-04-15T04:29:06.588Z,4.40
2023-04-15T04:33:10.440Z,4.80
2023-04-15T04:37:14.313Z,4.40
2023-04-15T04:39:16.143Z,3.65
2023-04-15T04:41:18.532Z,4.03
2023-04-15T04:43:20.413Z,4.40
2023-04-15T04:45:22.767Z,5.00
2023-04-15T04:47:24.670Z,4.13
2023-04-15T04:49:26.650Z,4.65
2023-04-15T04:51:28.552Z,4.68
2023-04-15T04:53:30.433Z,4.38
2023-04-15T04:55:32.466Z,5.45
2023-04-15T04:59:38.099Z,6.28
2023-04-15T05:03:42.123Z,6.53
2023-04-15T05:05:44.108Z,5.70
2023-04-15T05:07:46.152Z,5.53
2023-04-15T05:11:49.801Z,5.03
2023-04-15T05:13:51.648Z,5.28
2023-04-15T05:15:53.604Z,6.63
2023-04-15T05:17:55.511Z,6.38
2023-04-15T05:19:57.446Z,4.88
2023-04-15T05:21:59.333Z,5.75
2023-04-15T05:24:01.199Z,5.22
2023-04-15T05:26:03.171Z,5.57
2023-04-15T05:28:05.294Z,5.43
2023-04-15T05:32:09.315Z,5.90
2023-04-15T05:34:12.372Z,6.65
2023-04-15T05:36:14.399Z,7.47
2023-04-15T05:38:16.307Z,8.80
2023-04-15T05:40:18.873Z,7.80
2023-04-15T05:42:21.091Z,9.07
2023-04-15T05:44:23.047Z,9.20
2023-04-15T05:46:24.915Z,9.45
2023-04-15T05:48:26.757Z,11.45
2023-04-15T05:50:28.612Z,11.73
2023-04-15T05:52:31.510Z,10.80
2023-04-15T05:54:33.434Z,11.05
2023-04-15T05:56:35.545Z,11.15
2023-04-15T06:00:39.374Z,10.03
2023-04-15T06:06:46.243Z,10.32
2023-04-15T06:08:48.186Z,12.60
2023-04-15T06:10:50.115Z,12.00
2023-04-15T06:12:53.689Z,11.23
2023-04-15T06:14:55.795Z,11.20
2023-04-15T06:18:59.453Z,10.90
2023-04-15T06:23:03.297Z,10.93
2023-04-15T06:25:05.802Z,12.35
2023-04-15T06:27:07.685Z,11.23
2023-04-15T06:29:09.546Z,12.07
2023-04-15T06:31:11.455Z,11.13
2023-04-15T06:33:13.482Z,12.48
2023-04-15T06:35:16.057Z,13.38
2023-04-15T06:37:17.907Z,12.55
2023-04-15T06:39:19.797Z,13.07
2023-04-15T06:41:21.710Z,14.18
2023-04-15T06:43:23.545Z,12.10
2023-04-15T06:45:25.766Z,13.32
2023-04-15T06:47:27.661Z,14.35
2023-04-15T06:49:29.664Z,13.35
2023-04-15T06:53:33.700Z,12.63
2023-04-15T06:57:37.402Z,12.90
2023-04-15T06:59:39.352Z,12.60
2023-04-15T07:01:42.035Z,14.05
2023-04-15T07:03:44.078Z,13.95
2023-04-15T07:07:47.734Z,14.50
2023-04-15T07:09:49.842Z,13.70
2023-04-15T07:13:54.643Z,13.00
2023-04-15T07:15:56.873Z,13.30
2023-04-15T07:17:58.824Z,12.77
2023-04-15T07:20:00.682Z,14.70
2023-04-15T07:22:02.579Z,14.20
2023-04-15T07:24:04.746Z,16.23
2023-04-15T07:28:08.389Z,15.88
2023-04-15T07:30:11.419Z,15.43
2023-04-15T07:32:13.301Z,14.73
2023-04-15T07:34:15.213Z,13.85
2023-04-15T07:36:17.099Z,14.80
2023-04-15T07:38:18.949Z,12.48
2023-04-15T07:40:20.901Z,9.90
2023-04-15T07:42:22.824Z,9.95
2023-04-15T07:44:25.195Z,11.25
2023-04-15T07:46:29.969Z,9.15
2023-04-15T07:48:31.985Z,8.60
2023-04-15T07:50:33.854Z,8.00
2023-04-15T07:52:39.347Z,7.15
2023-04-15T07:54:41.209Z,6.90
2023-04-15T07:56:43.170Z,6.90
2023-04-15T07:58:45.061Z,4.68
2023-04-15T08:00:46.948Z,5.38
2023-04-15T08:02:49.946Z,5.50
2023-04-15T08:04:52.577Z,5.68
2023-04-15T08:06:54.815Z,6.43
2023-04-15T08:08:56.973Z,6.05
2023-04-15T08:10:59.076Z,6.70
2023-04-15T08:15:03.106Z,4.68
2023-04-15T08:19:07.487Z,4.13
2023-04-15T08:21:10.222Z,4.70
2023-04-15T08:23:12.135Z,5.13
2023-04-15T08:25:14.075Z,4.97
2023-04-15T08:27:16.018Z,4.97
2023-04-15T08:29:18.221Z,5.45
2023-04-15T08:31:20.925Z,4.93
2023-04-15T08:33:22.978Z,4.88
2023-04-15T08:35:24.855Z,5.60
2023-04-15T08:37:26.926Z,4.70
2023-04-15T08:41:40.252Z,3.90
2023-04-15T08:43:51.866Z,4.53
2023-04-15T08:45:54.333Z,4.53
2023-04-15T08:47:57.559Z,3.85
2023-04-15T08:49:59.981Z,4.35
2023-04-15T08:52:04.449Z,4.78
2023-04-15T08:54:07.205Z,4.57
2023-04-15T08:56:11.189Z,3.92
2023-04-15T08:58:14.378Z,5.25
2023-04-15T09:00:17.258Z,3.60
2023-04-15T09:02:20.470Z,4.13
2023-04-15T09:04:22.382Z,4.90
2023-04-15T09:06:24.459Z,4.13
2023-04-15T09:10:29.041Z,4.63
2023-04-15T09:12:31.531Z,4.35
2023-04-15T09:14:35.068Z,5.20
2023-04-15T09:17:03.262Z,5.50
2023-04-15T09:19:22.623Z,5.93
2023-04-15T09:21:25.236Z,8.48
2023-04-15T09:23:29.081Z,8.45
2023-04-15T09:25:33.506Z,6.53
2023-04-15T09:27:37.481Z,5.95
2023-04-15T09:29:42.577Z,7.25
2023-04-15T10:15:05.271Z,9.90
2023-04-15T10:17:11.539Z,10.75
2023-04-15T10:19:14.570Z,11.68
2023-04-15T10:21:18.863Z,10.05
2023-04-15T10:23:22.835Z,9.57
2023-04-15T10:25:27.111Z,8.13
2023-04-15T10:27:29.326Z,10.00
2023-04-15T10:29:31.451Z,10.18
2023-04-15T10:33:35.836Z,7.05
2023-04-15T10:35:39.335Z,6.18
2023-04-15T10:37:41.396Z,5.57
2023-04-15T10:41:46.501Z,6.65
2023-04-15T10:44:01.406Z,5.88
2023-04-15T10:46:06.382Z,7.22
2023-04-15T10:48:09.278Z,5.13
2023-04-15T10:50:11.323Z,5.63
2023-04-15T10:52:14.643Z,6.88
2023-04-15T10:54:26.468Z,4.85
2023-04-15T10:56:30.508Z,6.60
2023-04-15T10:58:43.121Z,6.82
2023-04-15T11:00:53.598Z,6.50
2023-04-15T11:02:58.249Z,4.32
2023-04-15T11:05:01.880Z,5.40
2023-04-15T11:07:07.519Z,6.30
2023-04-15T11:09:29.354Z,4.60
2023-04-15T11:12:11.987Z,4.65
2023-04-15T11:14:16.742Z,7.70
2023-04-15T11:16:18.852Z,5.35
2023-04-15T11:20:25.030Z,6.25
2023-04-15T11:22:27.252Z,6.53
2023-04-15T11:24:29.213Z,5.57
2023-04-15T11:26:32.253Z,4.43
2023-04-15T11:28:34.266Z,4.80
2023-04-15T11:30:37.726Z,6.30
2023-04-15T11:32:42.691Z,5.75
2023-04-15T11:34:46.726Z,5.20
2023-04-15T11:36:49.008Z,5.40
2023-04-15T11:38:50.960Z,4.95
2023-04-15T11:40:56.693Z,6.80
2023-04-15T11:43:11.654Z,7.85
2023-04-15T11:45:16.692Z,6.97
2023-04-15T11:47:24.859Z,6.07
2023-04-15T11:49:31.293Z,6.70
2023-04-15T11:51:34.600Z,6.07
2023-04-15T11:53:46.701Z,6.63
2023-04-15T11:55:50.656Z,6.32
2023-04-15T11:58:16.363Z,6.63
2023-04-15T12:00:20.920Z,6.22
2023-04-15T12:02:32.484Z,5.90
2023-04-15T12:04:35.027Z,7.03
2023-04-15T12:06:38.854Z,6.20
2023-04-15T12:08:51.173Z,7.60
2023-04-15T12:10:59.802Z,8.45
2023-04-15T12:13:01.701Z,8.05
2023-04-15T12:15:03.813Z,8.45
2023-04-15T12:19:11.614Z,6.70
2023-04-15T12:21:14.135Z,7.28
2023-04-15T12:23:20.757Z,7.40
2023-04-15T12:25:34.521Z,7.57
2023-04-15T12:27:36.848Z,8.45
2023-04-15T12:29:40.445Z,7.10
2023-04-15T12:32:08.402Z,6.38
2023-04-15T12:34:10.563Z,6.75
2023-04-15T12:38:14.421Z,7.38
2023-04-15T12:40:16.716Z,7.55
2023-04-15T12:42:18.875Z,8.23
2023-04-15T12:44:24.013Z,8.30
2023-04-15T12:46:27.229Z,9.65
2023-04-15T12:48:29.240Z,8.23
2023-04-15T12:50:31.104Z,11.35
2023-04-15T12:52:33.009Z,10.27
2023-04-15T12:54:36.064Z,13.48
2023-04-15T12:56:37.964Z,11.25
2023-04-15T12:58:39.925Z,11.18
2023-04-15T13:00:42.180Z,13.18
2023-04-15T13:02:44.881Z,12.18
2023-04-15T13:04:47.055Z,15.35
2023-04-15T13:08:58.407Z,15.02
2023-04-15T13:11:01.066Z,16.48
2023-04-15T13:13:03.575Z,18.92
2023-04-15T13:15:05.975Z,18.33
2023-04-15T13:17:10.322Z,18.45
2023-04-15T13:19:12.570Z,17.40
2023-04-15T13:21:14.646Z,18.50
2023-04-15T13:25:18.591Z,20.42
2023-04-15T13:27:20.455Z,18.98
2023-04-15T13:29:22.411Z,18.33
2023-04-15T13:31:24.330Z,18.50
2023-04-15T13:33:26.592Z,18.00
2023-04-15T13:35:28.560Z,18.80
2023-04-15T13:37:31.135Z,18.25
2023-04-15T13:39:32.990Z,20.33
2023-04-15T13:41:34.925Z,19.15
2023-04-15T13:43:36.819Z,18.55
2023-04-15T13:45:39.271Z,17.92
2023-04-15T13:47:41.868Z,20.40
2023-04-15T13:49:44.238Z,18.63
2023-04-15T13:51:46.155Z,20.45
2023-04-15T13:53:48.116Z,20.52
2023-04-15T13:55:50.034Z,20.63
2023-04-15T13:57:52.032Z,20.48
2023-04-15T14:01:55.838Z,17.73
2023-04-15T14:05:59.937Z,21.50
2023-04-15T14:08:01.867Z,21.73
2023-04-15T14:10:04.295Z,21.35
2023-04-15T14:12:06.282Z,23.27
2023-04-15T14:14:08.151Z,20.80
2023-04-15T14:16:10.548Z,21.58
2023-04-15T14:18:12.472Z,21.23
2023-04-15T14:20:16.836Z,20.02
2023-04-15T14:22:19.101Z,20.75
2023-04-15T14:24:21.099Z,20.33
2023-04-15T14:26:22.972Z,19.92
2023-04-15T14:28:25.367Z,20.98
2023-04-15T14:30:27.386Z,21.20
2023-04-15T14:34:31.205Z,20.77
2023-04-15T14:36:33.675Z,20.30
2023-04-15T14:40:42.010Z,19.90
2023-04-15T14:42:44.510Z,20.75
2023-04-15T14:44:46.518Z,22.08
2023-04-15T14:46:48.515Z,21.50
2023-04-15T14:50:52.903Z,19.50
2023-04-15T14:52:54.764Z,21.58
2023-04-15T14:54:56.669Z,20.70
2023-04-15T14:56:58.579Z,20.05
2023-04-15T14:59:00.418Z,18.75
2023-04-15T15:01:03.911Z,19.40
2023-04-15T15:03:12.917Z,19.13
2023-04-15T15:05:15.140Z,20.83
2023-04-15T15:09:19.820Z,20.40
2023-04-15T15:11:21.801Z,19.90
2023-04-15T15:13:23.770Z,21.38
2023-04-15T15:15:29.057Z,20.10
2023-04-15T15:17:31.454Z,20.40
2023-04-15T15:21:35.498Z,21.65
2023-04-15T15:25:39.367Z,19.60
2023-04-15T15:29:43.917Z,22.05
2023-04-15T15:31:45.982Z,23.65
2023-04-15T15:35:50.713Z,20.53
2023-04-15T15:37:53.062Z,22.58
2023-04-15T15:39:54.934Z,20.80
2023-04-15T15:41:56.763Z,21.45
2023-04-15T15:43:58.797Z,19.17
2023-04-15T15:48:03.052Z,19.95
2023-04-15T15:50:06.253Z,21.77
2023-04-15T15:52:08.777Z,23.45
2023-04-15T15:54:10.783Z,22.65
2023-04-15T15:56:13.726Z,21.08
2023-04-15T15:58:15.991Z,23.35
2023-04-15T16:00:18.083Z,23.38
2023-04-15T16:04:43.464Z,22.92
2023-04-15T16:08:49.421Z,23.95
2023-04-15T16:10:51.385Z,24.20
2023-04-15T16:12:53.270Z,23.63
2023-04-15T16:14:55.222Z,22.55
2023-04-15T16:16:57.310Z,24.48
2023-04-15T16:18:59.280Z,27.55
2023-04-15T16:21:01.270Z,25.95
2023-04-15T16:23:11.148Z,24.77
2023-04-15T16:25:13.034Z,23.98
2023-04-15T16:27:16.330Z,21.58
2023-04-15T16:29:18.324Z,25.50
2023-04-15T16:31:20.260Z,24.42
2023-04-15T16:33:22.151Z,25.67
2023-04-15T16:35:24.106Z,25.23
2023-04-15T16:37:26.475Z,23.25
2023-04-15T16:39:28.695Z,24.25
2023-04-15T16:41:33.934Z,23.27
2023-04-15T16:43:36.312Z,21.73
2023-04-15T16:45:38.595Z,23.48
2023-04-15T16:47:40.614Z,24.60
2023-04-15T16:49:42.527Z,23.92
2023-04-15T16:51:44.727Z,24.65
2023-04-15T16:53:46.619Z,22.98
2023-04-15T16:55:48.832Z,22.23
2023-04-15T16:58:01.554Z,21.55
2023-04-15T17:00:06.428Z,22.48
2023-04-15T17:02:12.430Z,22.52
2023-04-15T17:04:14.567Z,21.67
2023-04-15T17:08:18.352Z,19.60
2023-04-15T17:10:20.221Z,22.55
2023-04-15T17:12:22.081Z,21.23
2023-04-15T17:14:24.087Z,20.40
2023-04-15T17:16:26.563Z,20.77
2023-04-15T17:18:28.951Z,21.52
2023-04-15T17:20:31.074Z,23.80
2023-04-15T17:26:37.531Z,21.23
2023-04-15T17:28:39.515Z,24.30
2023-04-15T17:30:41.869Z,21.77
2023-04-15T17:32:43.942Z,21.85
2023-04-15T17:36:53.581Z,23.45
2023-04-15T17:38:56.527Z,23.92
2023-04-15T17:40:59.094Z,25.02
2023-04-15T17:43:00.970Z,23.83
2023-04-15T17:45:02.907Z,24.65
2023-04-15T17:47:04.887Z,24.10
2023-04-15T17:49:07.004Z,25.40
2023-04-15T17:51:09.051Z,24.85
2023-04-15T17:53:10.985Z,23.35
2023-04-15T17:55:12.868Z,24.63
2023-04-15T17:57:14.808Z,24.73
2023-04-15T17:59:17.167Z,22.55
2023-04-15T18:01:19.080Z,24.42
2023-04-15T18:03:22.092Z,22.73
2023-04-15T18:05:24.191Z,23.45
2023-04-15T18:07:26.790Z,23.58
2023-04-15T18:09:28.649Z,21.58
2023-04-15T18:11:33.275Z,23.20
2023-04-15T18:13:35.158Z,22.42
2023-04-15T18:15:37.084Z,22.70
2023-04-15T18:17:39.086Z,21.73
2023-04-15T18:21:42.717Z,22.30
2023-04-15T18:23:44.735Z,22.98
2023-04-15T18:25:47.258Z,23.45
2023-04-15T18:27:49.537Z,23.05
2023-04-15T18:29:51.565Z,21.65
2023-04-15T18:31:55.163Z,23.25
2023-04-15T18:33:57.088Z,21.52
2023-04-15T18:35:59.100Z,20.75
2023-04-15T18:38:02.486Z,19.67
2023-04-15T18:40:04.893Z,19.88
2023-04-15T18:42:06.820Z,19.83
2023-04-15T18:44:08.718Z,19.25
2023-04-15T18:46:12.444Z,18.80
2023-04-15T18:48:15.886Z,14.60
2023-04-15T18:50:18.077Z,16.48
2023-04-15T18:52:20.112Z,16.00
2023-04-15T18:54:22.068Z,16.73
2023-04-15T18:56:24.034Z,17.00
2023-04-15T18:58:27.112Z,15.65
2023-04-15T19:00:29.029Z,14.77
2023-04-15T19:02:31.021Z,14.25
2023-04-15T19:06:34.912Z,14.60
2023-04-15T19:10:39.021Z,12.33
2023-04-15T19:12:41.012Z,13.82
2023-04-15T19:14:42.853Z,12.25
2023-04-15T19:16:44.778Z,12.45
2023-04-15T19:18:46.781Z,11.90
2023-04-15T19:20:50.362Z,11.45
2023-04-15T19:22:54.186Z,10.82
2023-04-15T19:24:56.127Z,11.80
2023-04-15T19:26:58.020Z,10.98
2023-04-15T19:28:59.890Z,11.13
2023-04-15T19:31:01.890Z,9.70
2023-04-15T19:33:03.927Z,10.73
2023-04-15T19:37:08.858Z,10.80
2023-04-15T19:41:13.108Z,9.70
2023-04-15T19:45:16.897Z,10.10
2023-04-15T19:49:21.376Z,9.15
2023-04-15T19:51:23.349Z,9.60
2023-04-15T19:53:25.748Z,10.15
2023-04-15T19:55:27.654Z,10.13
2023-04-15T19:57:29.490Z,9.25
2023-04-15T19:59:31.377Z,9.38
2023-04-15T20:01:33.406Z,8.88
2023-04-15T20:05:37.483Z,8.20
2023-04-15T20:07:42.517Z,8.10
2023-04-15T20:09:45.437Z,8.15
2023-04-15T20:12:45.606Z,7.53
2023-04-15T20:14:10.781Z,6.88
2023-04-15T20:16:13.346Z,6.68
2023-04-15T20:18:15.282Z,7.65
2023-04-15T20:20:17.294Z,7.07
2023-04-15T20:24:21.532Z,7.87
2023-04-15T20:26:24.892Z,7.57
2023-04-15T20:28:27.764Z,7.20
2023-04-15T20:30:29.731Z,6.95
2023-04-15T20:32:36.368Z,7.28
2023-04-15T20:34:40.535Z,6.72
2023-04-15T20:36:42.374Z,7.65
2023-04-15T20:38:44.307Z,7.03
2023-04-15T20:40:46.522Z,7.82
2023-04-15T20:42:48.647Z,7.68
2023-04-15T20:46:52.627Z,7.65
2023-04-15T20:50:56.417Z,7.55
2023-04-15T20:52:58.349Z,8.38
2023-04-15T20:55:00.308Z,8.65
2023-04-15T20:57:02.599Z,8.25
2023-04-15T20:59:04.753Z,8.18
2023-04-15T21:01:07.155Z,8.52
2023-04-15T21:03:09.426Z,8.23
2023-04-15T21:05:11.556Z,9.50
2023-04-15T21:09:16.249Z,10.00
2023-04-15T21:11:38.783Z,8.85
2023-04-15T21:13:40.727Z,9.30
2023-04-15T21:15:42.650Z,9.10
2023-04-15T21:17:44.542Z,9.88
2023-04-15T21:19:46.488Z,9.63
2023-04-15T21:21:48.388Z,10.40
2023-04-15T21:23:50.393Z,10.82
2023-04-15T21:25:52.365Z,10.38
2023-04-15T21:29:57.052Z,10.18
2023-04-15T21:31:58.939Z,11.48
2023-04-15T21:34:00.936Z,11.18
2023-04-15T21:36:03.141Z,11.32
2023-04-15T21:38:05.003Z,12.55
2023-04-15T21:40:07.655Z,12.65
2023-04-15T21:42:09.586Z,12.70
2023-04-15T21:44:13.881Z,12.27
2023-04-15T21:46:22.892Z,12.93
2023-04-15T21:48:26.718Z,11.00
2023-04-15T21:50:28.643Z,12.10
2023-04-15T21:52:30.515Z,12.70
2023-04-15T21:54:34.526Z,13.45
2023-04-15T21:56:37.946Z,12.43
2023-04-15T21:58:39.988Z,12.55
2023-04-15T22:02:43.920Z,12.25
2023-04-15T22:06:47.691Z,12.60
2023-04-15T22:09:11.297Z,13.45
2023-04-15T22:11:26.519Z,14.73
2023-04-15T22:13:28.659Z,13.27
2023-04-15T22:15:30.646Z,14.90
2023-04-15T22:17:32.606Z,14.73
2023-04-15T22:19:34.501Z,14.25
2023-04-15T22:21:36.424Z,16.98
2023-04-15T22:23:38.311Z,15.25
2023-04-15T22:25:40.502Z,14.70
2023-04-15T22:27:42.439Z,13.88
2023-04-15T22:29:44.445Z,14.55
2023-04-15T22:31:46.461Z,14.95
2023-04-15T22:33:48.483Z,14.85
2023-04-15T22:35:50.466Z,14.32
2023-04-15T22:37:52.714Z,16.08
2023-04-15T22:39:54.564Z,14.38
2023-04-15T22:41:57.046Z,15.27
2023-04-15T22:43:58.882Z,15.43
2023-04-15T22:46:01.229Z,15.55
2023-04-15T22:48:03.452Z,15.00
2023-04-15T22:50:06.349Z,15.60
2023-04-15T22:52:10.432Z,15.57
2023-04-15T22:54:14.319Z,16.13
2023-04-15T22:56:22.120Z,16.40
2023-04-15T22:58:24.151Z,17.08
2023-04-15T23:00:26.076Z,17.17
2023-04-15T23:02:28.146Z,17.35
2023-04-15T23:04:30.415Z,17.45
2023-04-15T23:06:32.594Z,17.38
2023-04-15T23:08:34.432Z,17.90
2023-04-15T23:10:36.467Z,17.70
2023-04-15T23:14:40.297Z,17.48
2023-04-15T23:18:43.996Z,19.58
2023-04-15T23:20:46.447Z,18.88
2023-04-15T23:22:48.319Z,19.83
2023-04-15T23:24:50.210Z,19.02
2023-04-15T23:26:53.149Z,20.85
2023-04-15T23:28:55.244Z,20.58
2023-04-15T23:33:02.309Z,20.73
2023-04-15T23:35:04.561Z,20.77
2023-04-15T23:37:06.496Z,20.67
2023-04-15T23:39:08.587Z,21.05
2023-04-15T23:41:12.136Z,21.45
2023-04-15T23:43:14.107Z,22.15
2023-04-15T23:45:15.996Z,23.33
2023-04-15T23:47:17.913Z,22.33
2023-04-15T23:49:20.534Z,23.60
2023-04-15T23:51:22.526Z,24.50
2023-04-15T23:53:24.402Z,22.88
2023-04-15T23:55:26.348Z,22.63
2023-04-15T23:57:28.191Z,21.65
2023-04-15T23:59:30.048Z,22.65
